sensor_id;sensor_type;location;lat;lon;timestamp;temperature;humidity
9666;DHT22;4871;52.004;5.924;2022-09-23T00:00:00;12.9;52.8
9666;DHT22;4871;52.004;5.924;2022-09-23T00:01:03;12.9;52.9
9666;DHT22;4871;52.004;5.924;2022-09-23T00:02:01;12.9;52.8
9666;DHT22;4871;52.004;5.924;2022-09-23T00:03:00;12.9;52.8
9666;DHT22;4871;52.004;5.924;2022-09-23T00:04:00;12.9;52.9
9666;DHT22;4871;52.004;5.924;2022-09-23T00:05:00;12.9;52.9
9666;DHT22;4871;52.004;5.924;2022-09-23T00:06:02;12.9;52.9
9666;DHT22;4871;52.004;5.924;2022-09-23T00:07:00;12.9;52.9
9666;DHT22;4871;52.004;5.924;2022-09-23T00:08:00;12.9;52.8
9666;DHT22;4871;52.004;5.924;2022-09-23T00:09:00;12.9;52.8
9666;DHT22;4871;52.004;5.924;2022-09-23T00:10:00;12.8;52.9
9666;DHT22;4871;52.004;5.924;2022-09-23T00:12:00;12.8;53.0
9666;DHT22;4871;52.004;5.924;2022-09-23T00:13:00;12.8;53.0
9666;DHT22;4871;52.004;5.924;2022-09-23T00:14:00;12.7;53.1
9666;DHT22;4871;52.004;5.924;2022-09-23T00:15:00;12.8;53.0
9666;DHT22;4871;52.004;5.924;2022-09-23T00:16:03;12.7;53.2
9666;DHT22;4871;52.004;5.924;2022-09-23T00:17:00;12.8;52.9
9666;DHT22;4871;52.004;5.924;2022-09-23T00:18:00;12.7;53.1
9666;DHT22;4871;52.004;5.924;2022-09-23T00:19:01;12.8;53.0
9666;DHT22;4871;52.004;5.924;2022-09-23T00:20:00;12.8;53.1
9666;DHT22;4871;52.004;5.924;2022-09-23T00:21:04;12.7;52.9
9666;DHT22;4871;52.004;5.924;2022-09-23T00:22:00;12.7;53.1
9666;DHT22;4871;52.004;5.924;2022-09-23T00:23:00;12.7;53.2
9666;DHT22;4871;52.004;5.924;2022-09-23T00:24:01;12.7;53.2
9666;DHT22;4871;52.004;5.924;2022-09-23T00:25:00;12.7;53.2
9666;DHT22;4871;52.004;5.924;2022-09-23T00:26:02;12.7;53.1
9666;DHT22;4871;52.004;5.924;2022-09-23T00:27:00;12.7;53.2
9666;DHT22;4871;52.004;5.924;2022-09-23T00:28:00;12.6;53.1
9666;DHT22;4871;52.004;5.924;2022-09-23T00:29:00;12.6;53.3
9666;DHT22;4871;52.004;5.924;2022-09-23T00:30:01;12.6;53.2
9666;DHT22;4871;52.004;5.924;2022-09-23T00:31:09;12.7;53.2
9666;DHT22;4871;52.004;5.924;2022-09-23T00:32:00;12.6;53.2
9666;DHT22;4871;52.004;5.924;2022-09-23T00:33:00;12.6;53.2
9666;DHT22;4871;52.004;5.924;2022-09-23T00:34:00;12.6;53.4
9666;DHT22;4871;52.004;5.924;2022-09-23T00:35:00;12.6;53.3
9666;DHT22;4871;52.004;5.924;2022-09-23T00:36:02;12.6;52.9
9666;DHT22;4871;52.004;5.924;2022-09-23T00:37:00;12.6;53.4
9666;DHT22;4871;52.004;5.924;2022-09-23T00:38:00;12.6;53.3
9666;DHT22;4871;52.004;5.924;2022-09-23T00:39:00;12.6;53.3
9666;DHT22;4871;52.004;5.924;2022-09-23T00:40:01;12.5;53.3
9666;DHT22;4871;52.004;5.924;2022-09-23T00:41:00;12.6;53.3
9666;DHT22;4871;52.004;5.924;2022-09-23T00:42:00;12.6;53.2
9666;DHT22;4871;52.004;5.924;2022-09-23T00:43:01;12.6;53.3
9666;DHT22;4871;52.004;5.924;2022-09-23T00:44:01;12.5;53.4
9666;DHT22;4871;52.004;5.924;2022-09-23T00:45:00;12.5;53.3
9666;DHT22;4871;52.004;5.924;2022-09-23T00:46:00;12.5;53.4
9666;DHT22;4871;52.004;5.924;2022-09-23T00:47:00;12.5;53.4
9666;DHT22;4871;52.004;5.924;2022-09-23T00:48:01;12.5;53.3
9666;DHT22;4871;52.004;5.924;2022-09-23T00:49:11;12.5;53.2
9666;DHT22;4871;52.004;5.924;2022-09-23T00:50:17;12.5;53.5
9666;DHT22;4871;52.004;5.924;2022-09-23T00:51:00;12.5;53.3
9666;DHT22;4871;52.004;5.924;2022-09-23T00:52:06;12.5;53.5
9666;DHT22;4871;52.004;5.924;2022-09-23T00:53:02;12.5;53.5
9666;DHT22;4871;52.004;5.924;2022-09-23T00:54:00;12.5;53.5
9666;DHT22;4871;52.004;5.924;2022-09-23T00:55:02;12.5;53.6
9666;DHT22;4871;52.004;5.924;2022-09-23T00:56:02;12.4;53.4
9666;DHT22;4871;52.004;5.924;2022-09-23T00:57:00;12.5;53.4
9666;DHT22;4871;52.004;5.924;2022-09-23T00:58:02;12.5;53.4
9666;DHT22;4871;52.004;5.924;2022-09-23T00:59:00;12.5;53.2
9666;DHT22;4871;52.004;5.924;2022-09-23T01:00:00;12.5;53.2
9666;DHT22;4871;52.004;5.924;2022-09-23T01:01:01;12.5;53.4
9666;DHT22;4871;52.004;5.924;2022-09-23T01:02:01;12.5;53.4
9666;DHT22;4871;52.004;5.924;2022-09-23T01:03:00;12.5;53.5
9666;DHT22;4871;52.004;5.924;2022-09-23T01:04:00;12.4;53.4
9666;DHT22;4871;52.004;5.924;2022-09-23T01:05:01;12.4;53.6
9666;DHT22;4871;52.004;5.924;2022-09-23T01:06:00;12.4;53.6
9666;DHT22;4871;52.004;5.924;2022-09-23T01:07:00;12.5;53.4
9666;DHT22;4871;52.004;5.924;2022-09-23T01:08:01;12.5;53.2
9666;DHT22;4871;52.004;5.924;2022-09-23T01:09:00;12.5;53.3
9666;DHT22;4871;52.004;5.924;2022-09-23T01:10:00;12.5;53.4
9666;DHT22;4871;52.004;5.924;2022-09-23T01:12:21;12.5;53.4
9666;DHT22;4871;52.004;5.924;2022-09-23T01:13:07;12.4;53.5
9666;DHT22;4871;52.004;5.924;2022-09-23T01:14:12;12.4;53.7
9666;DHT22;4871;52.004;5.924;2022-09-23T01:15:09;12.4;53.4
9666;DHT22;4871;52.004;5.924;2022-09-23T01:16:07;12.5;53.3
9666;DHT22;4871;52.004;5.924;2022-09-23T01:17:08;12.5;53.4
9666;DHT22;4871;52.004;5.924;2022-09-23T01:18:20;12.4;53.4
9666;DHT22;4871;52.004;5.924;2022-09-23T01:19:08;12.4;53.4
9666;DHT22;4871;52.004;5.924;2022-09-23T01:20:18;12.4;53.6
9666;DHT22;4871;52.004;5.924;2022-09-23T01:21:20;12.4;53.6
9666;DHT22;4871;52.004;5.924;2022-09-23T01:22:16;12.4;53.5
9666;DHT22;4871;52.004;5.924;2022-09-23T01:23:12;12.4;53.5
9666;DHT22;4871;52.004;5.924;2022-09-23T01:26:06;12.4;53.6
9666;DHT22;4871;52.004;5.924;2022-09-23T01:27:13;12.4;53.5
9666;DHT22;4871;52.004;5.924;2022-09-23T01:28:09;12.3;53.7
9666;DHT22;4871;52.004;5.924;2022-09-23T01:29:16;12.4;53.5
9666;DHT22;4871;52.004;5.924;2022-09-23T01:30:13;12.4;53.4
9666;DHT22;4871;52.004;5.924;2022-09-23T01:31:13;12.3;53.4
9666;DHT22;4871;52.004;5.924;2022-09-23T01:32:13;12.3;53.6
9666;DHT22;4871;52.004;5.924;2022-09-23T01:33:03;12.3;53.5
9666;DHT22;4871;52.004;5.924;2022-09-23T01:34:08;12.3;53.7
9666;DHT22;4871;52.004;5.924;2022-09-23T01:35:05;12.3;53.8
9666;DHT22;4871;52.004;5.924;2022-09-23T01:37:08;12.3;53.6
9666;DHT22;4871;52.004;5.924;2022-09-23T01:38:10;12.3;53.7
9666;DHT22;4871;52.004;5.924;2022-09-23T01:39:10;12.3;53.7
9666;DHT22;4871;52.004;5.924;2022-09-23T01:40:05;12.3;53.6
9666;DHT22;4871;52.004;5.924;2022-09-23T01:41:11;12.2;53.7
9666;DHT22;4871;52.004;5.924;2022-09-23T01:42:05;12.3;53.7
9666;DHT22;4871;52.004;5.924;2022-09-23T01:43:06;12.3;53.9
9666;DHT22;4871;52.004;5.924;2022-09-23T01:44:05;12.2;53.7
9666;DHT22;4871;52.004;5.924;2022-09-23T01:46:01;12.2;53.7
9666;DHT22;4871;52.004;5.924;2022-09-23T01:47:04;12.2;53.8
9666;DHT22;4871;52.004;5.924;2022-09-23T01:48:05;12.2;53.8
9666;DHT22;4871;52.004;5.924;2022-09-23T01:49:12;12.2;53.7
9666;DHT22;4871;52.004;5.924;2022-09-23T01:50:07;12.2;53.7
9666;DHT22;4871;52.004;5.924;2022-09-23T01:51:11;12.1;53.9
9666;DHT22;4871;52.004;5.924;2022-09-23T01:52:13;12.1;54.0
9666;DHT22;4871;52.004;5.924;2022-09-23T01:53:04;12.2;54.0
9666;DHT22;4871;52.004;5.924;2022-09-23T01:55:05;12.1;53.9
9666;DHT22;4871;52.004;5.924;2022-09-23T01:56:05;12.1;54.0
9666;DHT22;4871;52.004;5.924;2022-09-23T01:57:08;12.1;53.9
9666;DHT22;4871;52.004;5.924;2022-09-23T01:58:05;12.1;53.8
9666;DHT22;4871;52.004;5.924;2022-09-23T01:59:07;12.1;54.0
9666;DHT22;4871;52.004;5.924;2022-09-23T02:00:05;12.1;54.0
9666;DHT22;4871;52.004;5.924;2022-09-23T02:01:03;12.1;53.9
9666;DHT22;4871;52.004;5.924;2022-09-23T02:02:11;12.1;53.8
9666;DHT22;4871;52.004;5.924;2022-09-23T02:03:06;12.1;53.8
9666;DHT22;4871;52.004;5.924;2022-09-23T02:04:04;12.1;53.9
9666;DHT22;4871;52.004;5.924;2022-09-23T02:05:07;12.1;54.0
9666;DHT22;4871;52.004;5.924;2022-09-23T02:06:05;12.0;54.1
9666;DHT22;4871;52.004;5.924;2022-09-23T02:07:05;12.1;54.0
9666;DHT22;4871;52.004;5.924;2022-09-23T02:08:04;12.0;54.2
9666;DHT22;4871;52.004;5.924;2022-09-23T02:09:03;12.0;54.1
9666;DHT22;4871;52.004;5.924;2022-09-23T02:10:06;12.0;54.2
9666;DHT22;4871;52.004;5.924;2022-09-23T02:11:09;12.0;54.0
9666;DHT22;4871;52.004;5.924;2022-09-23T02:12:03;12.0;54.1
9666;DHT22;4871;52.004;5.924;2022-09-23T02:13:06;12.0;54.1
9666;DHT22;4871;52.004;5.924;2022-09-23T02:14:03;12.0;54.2
9666;DHT22;4871;52.004;5.924;2022-09-23T02:15:03;12.0;54.1
9666;DHT22;4871;52.004;5.924;2022-09-23T02:16:06;12.0;54.1
9666;DHT22;4871;52.004;5.924;2022-09-23T02:17:05;12.0;54.1
9666;DHT22;4871;52.004;5.924;2022-09-23T02:18:07;11.9;54.3
9666;DHT22;4871;52.004;5.924;2022-09-23T02:19:06;11.9;54.1
9666;DHT22;4871;52.004;5.924;2022-09-23T02:20:02;12.0;54.2
9666;DHT22;4871;52.004;5.924;2022-09-23T02:21:03;11.9;54.1
9666;DHT22;4871;52.004;5.924;2022-09-23T02:22:05;12.0;54.2
9666;DHT22;4871;52.004;5.924;2022-09-23T02:23:04;11.9;54.0
9666;DHT22;4871;52.004;5.924;2022-09-23T02:24:06;11.9;54.2
9666;DHT22;4871;52.004;5.924;2022-09-23T02:25:00;11.9;54.1
9666;DHT22;4871;52.004;5.924;2022-09-23T02:26:04;11.9;54.4
9666;DHT22;4871;52.004;5.924;2022-09-23T02:28:08;11.9;54.2
9666;DHT22;4871;52.004;5.924;2022-09-23T02:29:06;11.9;54.0
9666;DHT22;4871;52.004;5.924;2022-09-23T02:31:08;11.9;54.3
9666;DHT22;4871;52.004;5.924;2022-09-23T02:32:13;11.9;54.1
9666;DHT22;4871;52.004;5.924;2022-09-23T02:33:05;11.8;54.3
9666;DHT22;4871;52.004;5.924;2022-09-23T02:34:09;11.9;54.2
9666;DHT22;4871;52.004;5.924;2022-09-23T02:36:05;11.8;54.4
9666;DHT22;4871;52.004;5.924;2022-09-23T02:39:02;11.8;54.2
9666;DHT22;4871;52.004;5.924;2022-09-23T02:40:06;11.8;54.4
9666;DHT22;4871;52.004;5.924;2022-09-23T02:41:08;11.8;54.2
9666;DHT22;4871;52.004;5.924;2022-09-23T02:42:06;11.8;54.4
9666;DHT22;4871;52.004;5.924;2022-09-23T02:43:08;11.8;54.4
9666;DHT22;4871;52.004;5.924;2022-09-23T02:44:06;11.8;54.4
9666;DHT22;4871;52.004;5.924;2022-09-23T02:45:00;11.8;54.4
9666;DHT22;4871;52.004;5.924;2022-09-23T02:46:02;11.8;54.4
9666;DHT22;4871;52.004;5.924;2022-09-23T02:47:00;11.8;54.4
9666;DHT22;4871;52.004;5.924;2022-09-23T02:48:05;11.8;54.4
9666;DHT22;4871;52.004;5.924;2022-09-23T02:49:02;11.8;54.3
9666;DHT22;4871;52.004;5.924;2022-09-23T02:50:00;11.8;54.3
9666;DHT22;4871;52.004;5.924;2022-09-23T02:51:02;11.8;54.3
9666;DHT22;4871;52.004;5.924;2022-09-23T02:52:03;11.8;54.2
9666;DHT22;4871;52.004;5.924;2022-09-23T02:53:00;11.8;54.3
9666;DHT22;4871;52.004;5.924;2022-09-23T02:54:02;11.8;54.4
9666;DHT22;4871;52.004;5.924;2022-09-23T02:55:00;11.8;54.3
9666;DHT22;4871;52.004;5.924;2022-09-23T02:56:00;11.8;54.3
9666;DHT22;4871;52.004;5.924;2022-09-23T02:57:02;11.8;54.5
9666;DHT22;4871;52.004;5.924;2022-09-23T02:58:02;11.8;54.5
9666;DHT22;4871;52.004;5.924;2022-09-23T02:59:00;11.8;54.4
9666;DHT22;4871;52.004;5.924;2022-09-23T03:00:01;11.8;54.3
9666;DHT22;4871;52.004;5.924;2022-09-23T03:01:06;11.8;54.4
9666;DHT22;4871;52.004;5.924;2022-09-23T03:04:20;11.8;54.4
9666;DHT22;4871;52.004;5.924;2022-09-23T03:05:06;11.8;54.5
9666;DHT22;4871;52.004;5.924;2022-09-23T03:06:07;11.8;54.2
9666;DHT22;4871;52.004;5.924;2022-09-23T03:07:01;11.8;54.4
9666;DHT22;4871;52.004;5.924;2022-09-23T03:08:09;11.8;54.6
9666;DHT22;4871;52.004;5.924;2022-09-23T03:09:05;11.8;54.6
9666;DHT22;4871;52.004;5.924;2022-09-23T03:11:05;11.8;54.5
9666;DHT22;4871;52.004;5.924;2022-09-23T03:13:11;11.8;54.5
9666;DHT22;4871;52.004;5.924;2022-09-23T03:14:11;11.8;54.5
9666;DHT22;4871;52.004;5.924;2022-09-23T03:15:09;11.8;54.4
9666;DHT22;4871;52.004;5.924;2022-09-23T03:16:14;11.8;54.3
9666;DHT22;4871;52.004;5.924;2022-09-23T03:17:03;11.8;54.3
9666;DHT22;4871;52.004;5.924;2022-09-23T03:18:08;11.8;54.4
9666;DHT22;4871;52.004;5.924;2022-09-23T03:19:04;11.8;54.4
9666;DHT22;4871;52.004;5.924;2022-09-23T03:20:06;11.8;54.5
9666;DHT22;4871;52.004;5.924;2022-09-23T03:21:04;11.8;54.4
9666;DHT22;4871;52.004;5.924;2022-09-23T03:22:04;11.8;54.6
9666;DHT22;4871;52.004;5.924;2022-09-23T03:23:02;11.7;54.6
9666;DHT22;4871;52.004;5.924;2022-09-23T03:24:01;11.7;54.6
9666;DHT22;4871;52.004;5.924;2022-09-23T03:25:06;11.8;54.4
9666;DHT22;4871;52.004;5.924;2022-09-23T03:26:04;11.8;54.4
9666;DHT22;4871;52.004;5.924;2022-09-23T03:27:03;11.8;54.6
9666;DHT22;4871;52.004;5.924;2022-09-23T03:28:00;11.8;54.3
9666;DHT22;4871;52.004;5.924;2022-09-23T03:29:02;11.8;54.5
9666;DHT22;4871;52.004;5.924;2022-09-23T03:30:00;11.8;54.5
9666;DHT22;4871;52.004;5.924;2022-09-23T03:31:00;11.8;54.5
9666;DHT22;4871;52.004;5.924;2022-09-23T03:32:00;11.8;54.5
9666;DHT22;4871;52.004;5.924;2022-09-23T03:33:03;11.7;54.7
9666;DHT22;4871;52.004;5.924;2022-09-23T03:34:02;11.8;54.5
9666;DHT22;4871;52.004;5.924;2022-09-23T03:35:01;11.7;54.6
9666;DHT22;4871;52.004;5.924;2022-09-23T03:36:11;11.7;54.7
9666;DHT22;4871;52.004;5.924;2022-09-23T03:37:03;11.7;54.7
9666;DHT22;4871;52.004;5.924;2022-09-23T03:38:06;11.7;54.7
9666;DHT22;4871;52.004;5.924;2022-09-23T03:39:05;11.7;54.8
9666;DHT22;4871;52.004;5.924;2022-09-23T03:41:02;11.7;54.7
9666;DHT22;4871;52.004;5.924;2022-09-23T03:42:04;11.7;54.6
9666;DHT22;4871;52.004;5.924;2022-09-23T03:43:02;11.7;54.7
9666;DHT22;4871;52.004;5.924;2022-09-23T03:44:00;11.7;54.7
9666;DHT22;4871;52.004;5.924;2022-09-23T03:45:03;11.7;54.7
9666;DHT22;4871;52.004;5.924;2022-09-23T03:46:00;11.7;54.6
9666;DHT22;4871;52.004;5.924;2022-09-23T03:47:00;11.7;54.6
9666;DHT22;4871;52.004;5.924;2022-09-23T03:48:00;11.7;54.7
9666;DHT22;4871;52.004;5.924;2022-09-23T03:49:07;11.7;55.0
9666;DHT22;4871;52.004;5.924;2022-09-23T03:50:00;11.7;55.1
9666;DHT22;4871;52.004;5.924;2022-09-23T03:51:07;11.7;55.2
9666;DHT22;4871;52.004;5.924;2022-09-23T03:52:01;11.7;55.7
9666;DHT22;4871;52.004;5.924;2022-09-23T03:53:00;11.7;55.2
9666;DHT22;4871;52.004;5.924;2022-09-23T03:54:00;11.7;55.1
9666;DHT22;4871;52.004;5.924;2022-09-23T03:55:00;11.7;55.1
9666;DHT22;4871;52.004;5.924;2022-09-23T03:56:00;11.7;55.0
9666;DHT22;4871;52.004;5.924;2022-09-23T03:57:00;11.7;55.0
9666;DHT22;4871;52.004;5.924;2022-09-23T03:58:02;11.7;54.9
9666;DHT22;4871;52.004;5.924;2022-09-23T03:59:00;11.7;55.0
9666;DHT22;4871;52.004;5.924;2022-09-23T04:00:00;11.7;55.1
9666;DHT22;4871;52.004;5.924;2022-09-23T04:01:00;11.7;55.2
9666;DHT22;4871;52.004;5.924;2022-09-23T04:02:00;11.6;56.5
9666;DHT22;4871;52.004;5.924;2022-09-23T04:03:00;11.6;55.9
9666;DHT22;4871;52.004;5.924;2022-09-23T04:04:00;11.6;55.8
9666;DHT22;4871;52.004;5.924;2022-09-23T04:05:00;11.5;57.1
9666;DHT22;4871;52.004;5.924;2022-09-23T04:06:00;11.5;56.3
9666;DHT22;4871;52.004;5.924;2022-09-23T04:07:00;11.5;56.3
9666;DHT22;4871;52.004;5.924;2022-09-23T04:08:00;11.6;55.9
9666;DHT22;4871;52.004;5.924;2022-09-23T04:09:00;11.6;55.6
9666;DHT22;4871;52.004;5.924;2022-09-23T04:10:00;11.6;55.6
9666;DHT22;4871;52.004;5.924;2022-09-23T04:11:01;11.6;55.6
9666;DHT22;4871;52.004;5.924;2022-09-23T04:12:00;11.6;55.3
9666;DHT22;4871;52.004;5.924;2022-09-23T04:13:00;11.6;55.2
9666;DHT22;4871;52.004;5.924;2022-09-23T04:14:00;11.6;55.2
9666;DHT22;4871;52.004;5.924;2022-09-23T04:15:00;11.6;55.5
9666;DHT22;4871;52.004;5.924;2022-09-23T04:16:00;11.6;55.3
9666;DHT22;4871;52.004;5.924;2022-09-23T04:17:00;11.6;55.2
9666;DHT22;4871;52.004;5.924;2022-09-23T04:18:00;11.6;55.2
9666;DHT22;4871;52.004;5.924;2022-09-23T04:19:00;11.6;55.1
9666;DHT22;4871;52.004;5.924;2022-09-23T04:20:00;11.6;55.4
9666;DHT22;4871;52.004;5.924;2022-09-23T04:21:00;11.6;55.5
9666;DHT22;4871;52.004;5.924;2022-09-23T04:22:00;11.6;55.2
9666;DHT22;4871;52.004;5.924;2022-09-23T04:23:00;11.7;55.1
9666;DHT22;4871;52.004;5.924;2022-09-23T04:24:00;11.6;55.1
9666;DHT22;4871;52.004;5.924;2022-09-23T04:25:00;11.6;55.1
9666;DHT22;4871;52.004;5.924;2022-09-23T04:26:00;11.6;55.4
9666;DHT22;4871;52.004;5.924;2022-09-23T04:27:00;11.6;55.2
9666;DHT22;4871;52.004;5.924;2022-09-23T04:28:00;11.6;55.3
9666;DHT22;4871;52.004;5.924;2022-09-23T04:29:00;11.6;55.3
9666;DHT22;4871;52.004;5.924;2022-09-23T04:30:00;11.6;55.2
9666;DHT22;4871;52.004;5.924;2022-09-23T04:31:08;11.6;55.2
9666;DHT22;4871;52.004;5.924;2022-09-23T04:32:00;11.6;55.1
9666;DHT22;4871;52.004;5.924;2022-09-23T04:33:00;11.6;55.1
9666;DHT22;4871;52.004;5.924;2022-09-23T04:34:00;11.7;55.1
9666;DHT22;4871;52.004;5.924;2022-09-23T04:35:00;11.7;55.0
9666;DHT22;4871;52.004;5.924;2022-09-23T04:36:00;11.6;55.2
9666;DHT22;4871;52.004;5.924;2022-09-23T04:37:00;11.6;55.4
9666;DHT22;4871;52.004;5.924;2022-09-23T04:38:00;11.6;55.1
9666;DHT22;4871;52.004;5.924;2022-09-23T04:39:00;11.6;55.4
9666;DHT22;4871;52.004;5.924;2022-09-23T04:40:00;11.6;55.4
9666;DHT22;4871;52.004;5.924;2022-09-23T04:41:00;11.6;55.3
9666;DHT22;4871;52.004;5.924;2022-09-23T04:42:00;11.6;55.2
9666;DHT22;4871;52.004;5.924;2022-09-23T04:43:00;11.6;55.1
9666;DHT22;4871;52.004;5.924;2022-09-23T04:44:00;11.6;55.1
9666;DHT22;4871;52.004;5.924;2022-09-23T04:45:00;11.6;55.1
9666;DHT22;4871;52.004;5.924;2022-09-23T04:46:02;11.6;55.1
9666;DHT22;4871;52.004;5.924;2022-09-23T04:47:00;11.6;55.1
9666;DHT22;4871;52.004;5.924;2022-09-23T04:48:00;11.6;55.2
9666;DHT22;4871;52.004;5.924;2022-09-23T04:49:00;11.6;55.3
9666;DHT22;4871;52.004;5.924;2022-09-23T04:50:00;11.6;55.3
9666;DHT22;4871;52.004;5.924;2022-09-23T04:51:01;11.6;55.6
9666;DHT22;4871;52.004;5.924;2022-09-23T04:52:01;11.6;55.2
9666;DHT22;4871;52.004;5.924;2022-09-23T04:53:00;11.6;55.1
9666;DHT22;4871;52.004;5.924;2022-09-23T04:54:00;11.7;55.1
9666;DHT22;4871;52.004;5.924;2022-09-23T04:55:01;11.6;55.1
9666;DHT22;4871;52.004;5.924;2022-09-23T04:56:02;11.6;55.1
9666;DHT22;4871;52.004;5.924;2022-09-23T04:57:00;11.6;55.1
9666;DHT22;4871;52.004;5.924;2022-09-23T04:58:00;11.6;55.1
9666;DHT22;4871;52.004;5.924;2022-09-23T04:59:01;11.6;55.2
9666;DHT22;4871;52.004;5.924;2022-09-23T05:00:00;11.6;55.3
9666;DHT22;4871;52.004;5.924;2022-09-23T05:01:13;11.6;55.5
9666;DHT22;4871;52.004;5.924;2022-09-23T05:02:00;11.6;55.3
9666;DHT22;4871;52.004;5.924;2022-09-23T05:03:00;11.6;55.3
9666;DHT22;4871;52.004;5.924;2022-09-23T05:04:03;11.6;55.2
9666;DHT22;4871;52.004;5.924;2022-09-23T05:05:00;11.6;55.3
9666;DHT22;4871;52.004;5.924;2022-09-23T05:06:01;11.6;55.2
9666;DHT22;4871;52.004;5.924;2022-09-23T05:07:00;11.6;55.1
9666;DHT22;4871;52.004;5.924;2022-09-23T05:08:00;11.6;55.0
9666;DHT22;4871;52.004;5.924;2022-09-23T05:09:01;11.6;55.4
9666;DHT22;4871;52.004;5.924;2022-09-23T05:10:00;11.6;55.7
9666;DHT22;4871;52.004;5.924;2022-09-23T05:11:02;11.6;55.6
9666;DHT22;4871;52.004;5.924;2022-09-23T05:12:00;11.5;55.7
9666;DHT22;4871;52.004;5.924;2022-09-23T05:13:00;11.6;55.8
9666;DHT22;4871;52.004;5.924;2022-09-23T05:14:00;11.6;55.6
9666;DHT22;4871;52.004;5.924;2022-09-23T05:15:00;11.6;55.5
9666;DHT22;4871;52.004;5.924;2022-09-23T05:16:02;11.6;55.3
9666;DHT22;4871;52.004;5.924;2022-09-23T05:17:00;11.6;55.3
9666;DHT22;4871;52.004;5.924;2022-09-23T05:18:01;11.6;55.5
9666;DHT22;4871;52.004;5.924;2022-09-23T05:19:00;11.5;55.6
9666;DHT22;4871;52.004;5.924;2022-09-23T05:20:00;11.5;55.7
9666;DHT22;4871;52.004;5.924;2022-09-23T05:21:01;11.6;55.5
9666;DHT22;4871;52.004;5.924;2022-09-23T05:22:00;11.6;56.0
9666;DHT22;4871;52.004;5.924;2022-09-23T05:23:00;11.6;55.5
9666;DHT22;4871;52.004;5.924;2022-09-23T05:24:00;11.6;55.3
9666;DHT22;4871;52.004;5.924;2022-09-23T05:25:01;11.6;55.4
9666;DHT22;4871;52.004;5.924;2022-09-23T05:26:02;11.6;55.3
9666;DHT22;4871;52.004;5.924;2022-09-23T05:27:00;11.6;55.3
9666;DHT22;4871;52.004;5.924;2022-09-23T05:28:00;11.6;55.7
9666;DHT22;4871;52.004;5.924;2022-09-23T05:29:00;11.6;55.5
9666;DHT22;4871;52.004;5.924;2022-09-23T05:30:00;11.5;55.7
9666;DHT22;4871;52.004;5.924;2022-09-23T05:32:00;11.6;55.4
9666;DHT22;4871;52.004;5.924;2022-09-23T05:33:01;11.6;55.3
9666;DHT22;4871;52.004;5.924;2022-09-23T05:34:02;11.6;55.2
9666;DHT22;4871;52.004;5.924;2022-09-23T05:35:00;11.6;55.8
9666;DHT22;4871;52.004;5.924;2022-09-23T05:36:00;11.6;55.6
9666;DHT22;4871;52.004;5.924;2022-09-23T05:37:00;11.5;56.1
9666;DHT22;4871;52.004;5.924;2022-09-23T05:38:00;11.6;55.6
9666;DHT22;4871;52.004;5.924;2022-09-23T05:39:00;11.6;55.7
9666;DHT22;4871;52.004;5.924;2022-09-23T05:40:00;11.6;55.4
9666;DHT22;4871;52.004;5.924;2022-09-23T05:41:02;11.6;55.3
9666;DHT22;4871;52.004;5.924;2022-09-23T05:42:00;11.6;55.3
9666;DHT22;4871;52.004;5.924;2022-09-23T05:43:00;11.6;55.3
9666;DHT22;4871;52.004;5.924;2022-09-23T05:44:00;11.6;55.2
9666;DHT22;4871;52.004;5.924;2022-09-23T05:45:00;11.6;55.2
9666;DHT22;4871;52.004;5.924;2022-09-23T05:46:02;11.6;55.2
9666;DHT22;4871;52.004;5.924;2022-09-23T05:47:00;11.6;55.2
9666;DHT22;4871;52.004;5.924;2022-09-23T05:48:00;11.7;55.1
9666;DHT22;4871;52.004;5.924;2022-09-23T05:49:00;11.7;55.1
9666;DHT22;4871;52.004;5.924;2022-09-23T05:50:00;11.7;55.1
9666;DHT22;4871;52.004;5.924;2022-09-23T05:51:01;11.7;55.2
9666;DHT22;4871;52.004;5.924;2022-09-23T05:52:00;11.6;55.4
9666;DHT22;4871;52.004;5.924;2022-09-23T05:53:00;11.6;55.4
9666;DHT22;4871;52.004;5.924;2022-09-23T05:54:02;11.7;55.3
9666;DHT22;4871;52.004;5.924;2022-09-23T05:55:01;11.7;55.2
9666;DHT22;4871;52.004;5.924;2022-09-23T05:56:00;11.7;55.2
9666;DHT22;4871;52.004;5.924;2022-09-23T05:57:00;11.7;55.2
9666;DHT22;4871;52.004;5.924;2022-09-23T05:58:00;11.7;55.1
9666;DHT22;4871;52.004;5.924;2022-09-23T05:59:01;11.7;55.1
9666;DHT22;4871;52.004;5.924;2022-09-23T06:00:00;11.7;55.1
9666;DHT22;4871;52.004;5.924;2022-09-23T06:01:00;11.7;55.1
9666;DHT22;4871;52.004;5.924;2022-09-23T06:02:00;11.7;55.2
9666;DHT22;4871;52.004;5.924;2022-09-23T06:03:00;11.7;55.2
9666;DHT22;4871;52.004;5.924;2022-09-23T06:04:01;11.7;55.1
9666;DHT22;4871;52.004;5.924;2022-09-23T06:05:00;11.7;55.1
9666;DHT22;4871;52.004;5.924;2022-09-23T06:06:00;11.7;55.1
9666;DHT22;4871;52.004;5.924;2022-09-23T06:07:00;11.8;55.1
9666;DHT22;4871;52.004;5.924;2022-09-23T06:08:00;11.7;55.2
9666;DHT22;4871;52.004;5.924;2022-09-23T06:09:00;11.7;55.1
9666;DHT22;4871;52.004;5.924;2022-09-23T06:10:00;11.8;55.1
9666;DHT22;4871;52.004;5.924;2022-09-23T06:11:05;11.8;54.9
9666;DHT22;4871;52.004;5.924;2022-09-23T06:12:00;11.8;55.0
9666;DHT22;4871;52.004;5.924;2022-09-23T06:13:00;11.8;55.0
9666;DHT22;4871;52.004;5.924;2022-09-23T06:14:01;11.8;54.9
9666;DHT22;4871;52.004;5.924;2022-09-23T06:15:00;11.8;54.8
9666;DHT22;4871;52.004;5.924;2022-09-23T06:16:00;11.8;54.8
9666;DHT22;4871;52.004;5.924;2022-09-23T06:17:00;11.9;54.8
9666;DHT22;4871;52.004;5.924;2022-09-23T06:18:00;11.8;55.1
9666;DHT22;4871;52.004;5.924;2022-09-23T06:19:04;11.9;54.9
9666;DHT22;4871;52.004;5.924;2022-09-23T06:20:00;11.9;54.8
9666;DHT22;4871;52.004;5.924;2022-09-23T06:21:01;11.9;54.7
9666;DHT22;4871;52.004;5.924;2022-09-23T06:22:00;12.0;54.7
9666;DHT22;4871;52.004;5.924;2022-09-23T06:23:04;11.9;54.8
9666;DHT22;4871;52.004;5.924;2022-09-23T06:24:00;11.9;54.7
9666;DHT22;4871;52.004;5.924;2022-09-23T06:25:00;12.0;54.7
9666;DHT22;4871;52.004;5.924;2022-09-23T06:26:01;12.0;54.7
9666;DHT22;4871;52.004;5.924;2022-09-23T06:27:00;12.0;54.8
9666;DHT22;4871;52.004;5.924;2022-09-23T06:28:00;12.0;54.7
9666;DHT22;4871;52.004;5.924;2022-09-23T06:29:01;12.1;54.6
9666;DHT22;4871;52.004;5.924;2022-09-23T06:30:00;12.1;54.7
9666;DHT22;4871;52.004;5.924;2022-09-23T06:31:02;12.0;54.5
9666;DHT22;4871;52.004;5.924;2022-09-23T06:32:00;12.1;54.5
9666;DHT22;4871;52.004;5.924;2022-09-23T06:33:01;12.1;54.5
9666;DHT22;4871;52.004;5.924;2022-09-23T06:34:00;12.1;54.5
9666;DHT22;4871;52.004;5.924;2022-09-23T06:35:00;12.1;54.4
9666;DHT22;4871;52.004;5.924;2022-09-23T06:36:02;12.1;54.3
9666;DHT22;4871;52.004;5.924;2022-09-23T06:37:00;12.1;54.4
9666;DHT22;4871;52.004;5.924;2022-09-23T06:38:03;12.2;54.3
9666;DHT22;4871;52.004;5.924;2022-09-23T06:39:01;12.2;54.4
9666;DHT22;4871;52.004;5.924;2022-09-23T06:40:00;12.2;54.3
9666;DHT22;4871;52.004;5.924;2022-09-23T06:41:02;12.2;54.2
9666;DHT22;4871;52.004;5.924;2022-09-23T06:42:00;12.2;54.6
9666;DHT22;4871;52.004;5.924;2022-09-23T06:43:00;12.3;54.3
9666;DHT22;4871;52.004;5.924;2022-09-23T06:44:00;12.3;54.4
9666;DHT22;4871;52.004;5.924;2022-09-23T06:45:01;12.3;54.4
9666;DHT22;4871;52.004;5.924;2022-09-23T06:46:01;12.3;55.4
9666;DHT22;4871;52.004;5.924;2022-09-23T06:47:00;12.3;54.6
9666;DHT22;4871;52.004;5.924;2022-09-23T06:48:00;12.3;54.8
9666;DHT22;4871;52.004;5.924;2022-09-23T06:49:01;12.3;54.4
9666;DHT22;4871;52.004;5.924;2022-09-23T06:50:00;12.4;55.3
9666;DHT22;4871;52.004;5.924;2022-09-23T06:51:03;12.4;54.7
9666;DHT22;4871;52.004;5.924;2022-09-23T06:52:00;12.4;54.6
9666;DHT22;4871;52.004;5.924;2022-09-23T06:53:00;12.4;54.4
9666;DHT22;4871;52.004;5.924;2022-09-23T06:54:00;12.4;54.3
9666;DHT22;4871;52.004;5.924;2022-09-23T06:55:00;12.4;55.7
9666;DHT22;4871;52.004;5.924;2022-09-23T06:56:04;12.4;54.5
9666;DHT22;4871;52.004;5.924;2022-09-23T06:57:00;12.4;55.5
9666;DHT22;4871;52.004;5.924;2022-09-23T06:58:00;12.4;55.1
9666;DHT22;4871;52.004;5.924;2022-09-23T06:59:00;12.4;54.5
9666;DHT22;4871;52.004;5.924;2022-09-23T07:00:00;12.5;54.4
9666;DHT22;4871;52.004;5.924;2022-09-23T07:01:10;12.5;54.8
9666;DHT22;4871;52.004;5.924;2022-09-23T07:02:00;12.5;54.4